Overview Statistics Trail Chart Weather Telemetry Raw packets
 

This is the latest recevied weather packets stored in our database for station/object JF7BTK-10. If no packets are shown the sender has not sent any weather packets the latest 10 day(s).

<< 61 62 63 64 65 66 >>
Time Temp. Humidity Pressure Rain* Wind** Luminosity Snow
1787875088 25° C 69% 1003 hPa 0 mm - - -
1787874189 25° C 70% 1002.8 hPa 0 mm - - -
1787873287 24.44° C 73% 1002.6 hPa 0 mm - - -
1787872389 25.56° C 72% 1002.4 hPa 0 mm - - -
1787871951 25° C 74% 1002.2 hPa 0 mm - - -
1787871490 24.44° C 79% 1002 hPa 0 mm - - -
1787870752 22.78° C 78% 1001.9 hPa 0 mm - - -
1787870588 22.22° C 77% 1001.9 hPa 0 mm - - -
1787869689 25° C 72% 1001.5 hPa 0 mm - - -
1787868789 23.89° C 85% 1001.5 hPa 0 mm - - -
1787867889 22.78° C 91% 1001.5 hPa 0 mm - - -
1787866989 21.11° C 97% 1001.6 hPa 0 mm - - -
1787866089 21.11° C 98% 1001.6 hPa 0 mm - - -
1787865189 20.56° C 99% 1001.5 hPa 0 mm - - -
1787864289 20° C 99% 1001.3 hPa 0 mm - - -
1787863388 20° C 99% 1001.2 hPa 0 mm - - -
1787862489 19.44° C 99% 1001.1 hPa 0 mm - - -
1787861588 19.44° C 99% 1001.1 hPa 0 mm - - -
1787860689 19.44° C 99% 1000.8 hPa 0 mm - - -
1787859789 19.44° C 99% 1000.8 hPa 0 mm - - -
1787858889 19.44° C 99% 1000.4 hPa 0 mm - - -
1787857989 19.44° C 99% 1000.4 hPa 0 mm - - -
1787857558 19.44° C 99% 1000.2 hPa 0 mm - - -
1787857089 20° C 99% 1000.1 hPa 0 mm - - -
1787856652 20° C 99% 1000.1 hPa 0 mm - - -

* Rain latest hour (hover to see other rain measurements)
** Current wind speed in m/s (hover to see current wind gust speed)